Time;durP1;ratioP1;P1;durP2;ratioP2;P2;SDS_P1;SDS_P2;PMS_P1;PMS_P2;Temp;Humidity;BMP_temperature;BMP_pressure;BME280_temperature;BME280_humidity;BME280_pressure;Samples;Min_cycle;Max_cycle;Signal;HPM_P1;HPM_P2
2022/03/09 00:00:21;;;;;;;13.38;6.70;;;0.70;99.90;;;;;;5114375;27;20059;-66
2022/03/09 00:02:46;;;;;;;13.20;6.95;;;0.70;99.90;;;;;;5108734;27;20043;-66
2022/03/09 00:05:12;;;;;;;12.43;6.90;;;0.70;99.90;;;;;;5115582;27;20040;-66
2022/03/09 00:07:37;;;;;;;11.32;6.60;;;0.70;99.90;;;;;;5112343;27;20049;-65
2022/03/09 00:10:04;;;;;;;14.38;7.55;;;0.70;99.90;;;;;;5113778;27;20039;-67
2022/03/09 00:12:31;;;;;;;13.60;7.15;;;0.70;99.90;;;;;;5115259;27;20497;-66
2022/03/09 00:14:56;;;;;;;14.07;7.30;;;0.60;99.90;;;;;;5114982;27;20076;-66
2022/03/09 00:17:22;;;;;;;16.02;7.43;;;0.60;99.90;;;;;;5114241;27;20043;-66
2022/03/09 00:19:48;;;;;;;12.38;7.00;;;0.60;99.90;;;;;;5114081;27;20070;-66
2022/03/09 00:22:13;;;;;;;14.98;6.97;;;0.60;99.90;;;;;;5102022;28;20462;-66
2022/03/09 00:24:39;;;;;;;13.85;7.63;;;0.60;99.90;;;;;;5108670;27;20480;-66
2022/03/09 00:27:05;;;;;;;16.15;7.57;;;0.60;99.90;;;;;;5114708;27;20485;-66
2022/03/09 00:29:30;;;;;;;13.48;7.05;;;0.50;99.90;;;;;;5106840;27;20043;-66
2022/03/09 00:31:56;;;;;;;14.60;7.75;;;0.50;99.90;;;;;;5114990;27;20557;-66
2022/03/09 00:34:21;;;;;;;13.07;7.03;;;0.50;99.90;;;;;;5112805;27;20564;-66
2022/03/09 00:36:47;;;;;;;14.45;7.70;;;0.50;99.90;;;;;;5113695;27;20043;-66
2022/03/09 00:39:12;;;;;;;14.32;7.60;;;0.50;99.90;;;;;;5113361;27;20028;-66
2022/03/09 00:41:38;;;;;;;15.65;7.72;;;0.50;99.90;;;;;;5114587;27;20107;-66
2022/03/09 00:44:04;;;;;;;17.50;8.20;;;0.40;99.90;;;;;;5114486;27;20041;-66
2022/03/09 00:46:30;;;;;;;15.75;8.15;;;0.40;99.90;;;;;;5133116;27;20477;-66
2022/03/09 00:48:55;;;;;;;13.73;8.00;;;0.40;99.90;;;;;;5112059;27;20047;-66
2022/03/09 00:51:21;;;;;;;15.63;8.00;;;0.40;99.90;;;;;;5114686;27;20065;-66
2022/03/09 00:53:47;;;;;;;15.23;7.80;;;0.40;99.90;;;;;;5113357;27;20061;-66
2022/03/09 00:56:14;;;;;;;18.02;8.02;;;0.40;99.90;;;;;;5105805;27;20039;-66
2022/03/09 00:58:40;;;;;;;14.80;7.75;;;0.40;99.90;;;;;;5107165;27;20066;-67
2022/03/09 01:01:05;;;;;;;15.15;7.82;;;0.40;99.90;;;;;;5110009;27;20039;-66
2022/03/09 01:03:31;;;;;;;17.63;8.23;;;0.40;99.90;;;;;;5107467;27;20255;-66
2022/03/09 01:05:57;;;;;;;15.88;8.00;;;0.20;99.90;;;;;;5113224;27;20405;-66
2022/03/09 01:08:22;;;;;;;15.85;8.02;;;0.30;99.90;;;;;;5113826;27;20043;-66
2022/03/09 01:10:48;;;;;;;15.68;8.35;;;0.30;99.90;;;;;;5112682;27;20035;-66
2022/03/09 01:13:13;;;;;;;15.80;8.45;;;0.30;99.90;;;;;;5104117;27;20046;-66
2022/03/09 01:15:39;;;;;;;14.48;8.25;;;0.30;99.90;;;;;;5112420;27;20407;-66
2022/03/09 01:18:04;;;;;;;17.77;8.82;;;0.30;99.90;;;;;;5112497;27;20122;-66
2022/03/09 01:20:30;;;;;;;17.20;8.73;;;0.30;99.90;;;;;;5112033;27;20070;-66
2022/03/09 01:22:55;;;;;;;14.20;8.20;;;0.30;99.90;;;;;;5130675;27;20057;-66
2022/03/09 01:25:21;;;;;;;16.58;8.68;;;0.30;99.90;;;;;;5112203;27;20050;-66
2022/03/09 01:27:47;;;;;;;18.40;8.82;;;0.30;99.90;;;;;;5109590;27;20047;-66
2022/03/09 01:30:13;;;;;;;15.98;8.55;;;0.20;99.90;;;;;;5107655;27;20047;-66
2022/03/09 01:32:38;;;;;;;18.42;9.00;;;0.20;99.90;;;;;;5111164;27;20425;-66
2022/03/09 01:35:04;;;;;;;14.55;8.55;;;0.20;99.90;;;;;;5108654;27;20393;-66
2022/03/09 01:37:30;;;;;;;15.52;8.57;;;0.20;99.90;;;;;;5111808;27;20095;-66
2022/03/09 01:39:55;;;;;;;16.70;8.75;;;0.20;99.90;;;;;;5110360;27;20491;-66
2022/03/09 01:42:21;;;;;;;15.23;8.15;;;0.20;99.90;;;;;;5110276;27;20043;-66
2022/03/09 01:44:47;;;;;;;14.85;8.27;;;0.20;99.90;;;;;;5110520;27;20031;-66
2022/03/09 01:47:13;;;;;;;18.90;8.43;;;0.20;99.90;;;;;;5112694;27;20042;-66
2022/03/09 01:49:39;;;;;;;16.10;8.85;;;0.20;99.90;;;;;;5127930;27;20496;-66
2022/03/09 01:52:05;;;;;;;18.55;8.93;;;0.20;99.90;;;;;;5109344;27;20631;-66
2022/03/09 01:54:31;;;;;;;16.65;8.48;;;0.20;99.90;;;;;;5111975;27;20053;-66
2022/03/09 01:56:58;;;;;;;16.80;8.57;;;0.20;99.90;;;;;;5109769;27;20039;-66
2022/03/09 01:59:23;;;;;;;16.98;8.55;;;0.10;99.90;;;;;;5109427;27;20050;-66
2022/03/09 02:01:49;;;;;;;15.85;8.38;;;0.10;99.90;;;;;;5111276;27;20259;-66
2022/03/09 02:04:17;;;;;;;18.08;9.27;;;0.10;99.90;;;;;;5109554;27;20031;-66
2022/03/09 02:06:43;;;;;;;15.52;8.68;;;0.10;99.90;;;;;;5102719;27;20052;-66
2022/03/09 02:11:55;;;;;;;17.67;8.85;;;0.00;99.90;;;;;;5111949;27;20130;-66
2022/03/09 02:14:36;;;;;;;16.55;9.10;;;0.00;99.90;;;;;;5127172;27;20043;-66
2022/03/09 02:17:07;;;;;;;17.33;9.25;;;0.00;99.90;;;;;;5111027;27;20043;-66
2022/03/09 02:19:33;;;;;;;15.68;8.43;;;-0.10;99.90;;;;;;5106252;27;20074;-66
2022/03/09 02:22:10;;;;;;;17.63;8.43;;;-0.10;99.90;;;;;;5109802;27;20477;-66
2022/03/09 02:24:35;;;;;;;15.27;8.27;;;-0.10;99.90;;;;;;5111835;27;20035;-66
2022/03/09 02:27:01;;;;;;;17.55;9.05;;;-0.20;99.90;;;;;;5108102;27;20043;-66
2022/03/09 02:29:27;;;;;;;18.98;9.07;;;-0.20;99.90;;;;;;5110666;27;20047;-66
2022/03/09 02:31:53;;;;;;;15.88;8.15;;;-0.20;99.90;;;;;;5108773;27;20481;-66
2022/03/09 02:34:18;;;;;;;20.48;9.63;;;-0.20;99.90;;;;;;5126791;27;20496;-66
2022/03/09 02:36:44;;;;;;;19.13;9.10;;;-0.20;99.90;;;;;;5111761;27;20027;-66
2022/03/09 02:39:09;;;;;;;16.75;9.15;;;-0.30;99.90;;;;;;5107260;28;20122;-66
2022/03/09 02:41:35;;;;;;;18.67;9.18;;;-0.30;99.90;;;;;;5110972;27;20039;-66
2022/03/09 02:44:01;;;;;;;17.95;9.38;;;-0.30;99.90;;;;;;5109573;27;20043;-66
2022/03/09 02:46:27;;;;;;;19.25;8.98;;;-0.30;99.90;;;;;;5110301;27;20084;-66
2022/03/09 02:48:53;;;;;;;17.45;8.98;;;-0.40;99.90;;;;;;5110412;28;20440;-66
2022/03/09 02:51:18;;;;;;;18.02;9.32;;;-0.30;99.90;;;;;;5130338;27;20042;-66
2022/03/09 02:53:44;;;;;;;19.13;9.02;;;-0.40;99.90;;;;;;5105957;27;20512;-66
2022/03/09 02:56:09;;;;;;;21.33;9.45;;;-0.40;99.90;;;;;;5106594;28;20088;-66
2022/03/09 02:58:35;;;;;;;18.77;8.77;;;-0.40;99.90;;;;;;5107542;28;20062;-66
2022/03/09 03:01:00;;;;;;;17.70;9.05;;;-0.50;99.90;;;;;;5112558;28;20545;-66
2022/03/09 03:03:26;;;;;;;18.75;9.13;;;-0.60;99.90;;;;;;5110247;28;20051;-66
2022/03/09 03:05:51;;;;;;;18.75;9.30;;;-0.70;99.90;;;;;;5111203;28;20039;-66
2022/03/09 03:08:17;;;;;;;16.13;9.00;;;-0.80;99.90;;;;;;5109733;28;20083;-66
2022/03/09 03:10:42;;;;;;;17.90;9.13;;;-0.90;99.90;;;;;;5110038;28;20038;-66
2022/03/09 03:13:08;;;;;;;18.38;9.10;;;-0.90;99.90;;;;;;5110448;27;20046;-66
2022/03/09 03:15:33;;;;;;;16.90;8.85;;;-0.90;99.90;;;;;;5093715;28;20034;-66
2022/03/09 03:18:01;;;;;;;16.70;9.13;;;-0.90;99.90;;;;;;5109332;28;20086;-66
2022/03/09 03:20:27;;;;;;;19.00;9.48;;;-0.90;99.90;;;;;;5108606;28;20063;-66
2022/03/09 03:22:52;;;;;;;19.50;9.68;;;-1.00;99.90;;;;;;5103401;28;20074;-66
2022/03/09 03:25:18;;;;;;;18.30;9.52;;;-1.00;99.90;;;;;;5111349;28;20535;-66
2022/03/09 03:27:44;;;;;;;19.65;9.95;;;-0.90;99.90;;;;;;5103387;27;20464;-67
2022/03/09 03:30:10;;;;;;;16.50;8.52;;;-1.00;99.90;;;;;;5100859;28;20839;-66
2022/03/09 03:32:35;;;;;;;18.02;8.85;;;-1.00;99.90;;;;;;5110532;28;20118;-67
2022/03/09 03:35:01;;;;;;;18.10;9.25;;;-1.00;99.90;;;;;;5114393;27;20035;-67
2022/03/09 03:37:26;;;;;;;17.45;9.60;;;-1.00;99.90;;;;;;5111780;27;20047;-67
2022/03/09 03:39:52;;;;;;;20.73;9.48;;;-1.00;99.90;;;;;;5114776;27;20469;-67
2022/03/09 03:42:18;;;;;;;20.70;9.82;;;-1.00;99.90;;;;;;5109244;27;20039;-67
2022/03/09 03:44:43;;;;;;;18.00;8.95;;;-1.00;99.90;;;;;;5114371;27;20035;-67
2022/03/09 03:47:09;;;;;;;17.08;9.00;;;-1.10;99.90;;;;;;5110359;27;20126;-67
2022/03/09 03:49:34;;;;;;;20.88;9.88;;;-1.10;99.90;;;;;;5103544;27;20066;-66
2022/03/09 03:52:00;;;;;;;18.25;9.20;;;-1.00;99.90;;;;;;5115122;27;20039;-66
2022/03/09 03:54:25;;;;;;;20.40;8.93;;;-1.00;99.90;;;;;;5116143;27;20041;-67
2022/03/09 03:56:51;;;;;;;20.98;9.45;;;-1.00;99.90;;;;;;5132562;27;20046;-66
2022/03/09 03:59:16;;;;;;;16.95;8.90;;;-1.00;99.90;;;;;;5115209;27;20043;-67
2022/03/09 04:01:42;;;;;;;17.95;9.70;;;-1.10;99.90;;;;;;5114732;27;20043;-66
2022/03/09 04:04:07;;;;;;;18.83;9.18;;;-1.10;99.90;;;;;;5113562;27;20409;-66
2022/03/09 04:06:33;;;;;;;18.60;9.25;;;-1.10;99.90;;;;;;5115612;27;20508;-66
2022/03/09 04:08:58;;;;;;;17.23;8.80;;;-1.10;99.90;;;;;;5113712;27;20042;-66
2022/03/09 04:11:24;;;;;;;18.25;9.45;;;-1.10;99.90;;;;;;5114607;27;20047;-66
2022/03/09 04:13:49;;;;;;;19.08;9.20;;;-1.10;99.90;;;;;;5114166;27;20054;-66
2022/03/09 04:16:15;;;;;;;20.92;9.55;;;-1.20;99.90;;;;;;5114201;27;20078;-66
2022/03/09 04:18:40;;;;;;;20.23;9.23;;;-1.20;99.90;;;;;;5114125;27;20039;-66
2022/03/09 04:21:06;;;;;;;22.92;9.82;;;-1.20;99.90;;;;;;5114389;27;20120;-66
2022/03/09 04:23:31;;;;;;;19.48;9.50;;;-1.20;99.90;;;;;;5112085;27;20180;-66
2022/03/09 04:25:57;;;;;;;17.05;9.18;;;-1.20;99.90;;;;;;5113843;27;20127;-67
2022/03/09 04:28:22;;;;;;;20.30;10.07;;;-1.30;99.90;;;;;;5110844;27;20450;-67
2022/03/09 04:30:48;;;;;;;16.88;9.45;;;-1.30;99.90;;;;;;5113666;27;20075;-66
2022/03/09 04:33:13;;;;;;;16.50;9.05;;;-1.30;99.90;;;;;;5113728;27;20031;-66
2022/03/09 04:35:39;;;;;;;19.30;9.75;;;-1.30;99.90;;;;;;5114379;27;20063;-66
2022/03/09 04:38:04;;;;;;;17.85;9.55;;;-1.30;99.90;;;;;;5113839;27;20043;-67
2022/03/09 04:40:30;;;;;;;20.13;9.77;;;-1.30;99.90;;;;;;5109945;27;20036;-66
2022/03/09 04:42:56;;;;;;;19.45;9.68;;;-1.30;99.90;;;;;;5132019;27;20492;-67
2022/03/09 04:45:21;;;;;;;19.27;9.68;;;-1.30;99.90;;;;;;5110548;27;20039;-66
2022/03/09 04:47:47;;;;;;;18.13;9.32;;;-1.30;99.90;;;;;;5113212;27;20043;-66
2022/03/09 04:50:12;;;;;;;19.23;8.70;;;-1.30;99.90;;;;;;5112946;27;20485;-66
2022/03/09 04:52:38;;;;;;;17.35;9.18;;;-1.30;99.90;;;;;;5113548;27;20066;-66
2022/03/09 04:55:04;;;;;;;22.55;9.68;;;-1.30;99.90;;;;;;5108141;27;20386;-66
2022/03/09 04:57:30;;;;;;;20.52;9.38;;;-1.30;99.90;;;;;;5105803;27;20084;-66
2022/03/09 04:59:55;;;;;;;19.55;9.52;;;-1.30;99.90;;;;;;5112985;27;20039;-67
2022/03/09 05:02:21;;;;;;;18.88;9.65;;;-1.30;99.90;;;;;;5112868;27;20443;-67
2022/03/09 05:04:46;;;;;;;23.33;10.00;;;-1.30;99.90;;;;;;5131497;27;20039;-67
2022/03/09 05:07:12;;;;;;;17.38;8.90;;;-1.30;99.90;;;;;;5113126;27;20042;-67
2022/03/09 05:09:37;;;;;;;21.70;9.35;;;-1.40;99.90;;;;;;5113067;27;20039;-67
2022/03/09 05:12:03;;;;;;;18.13;9.75;;;-1.40;99.90;;;;;;5111855;27;20408;-67
2022/03/09 05:14:29;;;;;;;18.10;9.18;;;-1.40;99.90;;;;;;5113685;27;20043;-67
2022/03/09 05:16:55;;;;;;;19.65;9.88;;;-1.40;99.90;;;;;;5113268;27;20039;-67
2022/03/09 05:19:20;;;;;;;19.00;9.15;;;-1.40;99.90;;;;;;5112489;27;20401;-67
2022/03/09 05:21:46;;;;;;;19.30;9.13;;;-1.40;99.90;;;;;;5112965;27;20031;-67
2022/03/09 05:24:11;;;;;;;17.98;8.75;;;-1.50;99.90;;;;;;5112942;27;20122;-67
2022/03/09 05:26:37;;;;;;;19.08;10.25;;;-1.50;99.90;;;;;;5112760;27;20133;-67
2022/03/09 05:29:03;;;;;;;20.13;9.75;;;-1.50;99.90;;;;;;5110198;27;20074;-67
2022/03/09 05:31:29;;;;;;;17.67;8.90;;;-1.50;99.90;;;;;;5113132;27;20093;-67
2022/03/09 05:33:54;;;;;;;22.08;9.82;;;-1.50;99.90;;;;;;5110630;27;20088;-67
2022/03/09 05:36:20;;;;;;;21.30;10.38;;;-1.50;99.90;;;;;;5112529;27;20047;-67
2022/03/09 05:38:46;;;;;;;18.88;8.88;;;-1.50;99.90;;;;;;5111541;27;20046;-67
2022/03/09 05:41:12;;;;;;;17.63;9.60;;;-1.50;99.90;;;;;;5109605;27;20028;-67
2022/03/09 05:43:37;;;;;;;17.75;9.25;;;-1.60;99.90;;;;;;5112337;27;20035;-67
2022/03/09 05:46:03;;;;;;;19.83;10.18;;;-1.60;99.90;;;;;;5110977;27;20050;-67
2022/03/09 05:48:28;;;;;;;20.55;10.43;;;-1.60;99.90;;;;;;5109792;27;20115;-67
2022/03/09 05:50:55;;;;;;;19.20;10.07;;;-1.60;99.90;;;;;;5112152;27;20160;-67
2022/03/09 05:53:20;;;;;;;23.88;9.38;;;-1.60;99.90;;;;;;5109371;27;20088;-67
2022/03/09 05:55:46;;;;;;;20.92;9.55;;;-1.70;99.90;;;;;;5110662;27;20062;-67
2022/03/09 05:58:11;;;;;;;20.58;10.85;;;-1.60;99.90;;;;;;5111625;27;20470;-67
2022/03/09 06:00:37;;;;;;;20.85;9.27;;;-1.60;99.90;;;;;;5104417;27;20102;-68
2022/03/09 06:03:02;;;;;;;22.40;9.80;;;-1.60;99.90;;;;;;5111013;27;20121;-67
2022/03/09 06:05:28;;;;;;;19.75;9.52;;;-1.70;99.90;;;;;;5125119;27;20512;-67
2022/03/09 06:07:53;;;;;;;21.08;9.98;;;-1.70;99.90;;;;;;5106611;27;20050;-68
2022/03/09 06:10:19;;;;;;;20.80;9.38;;;-1.70;99.90;;;;;;5112073;27;20398;-67
2022/03/09 06:12:45;;;;;;;22.10;9.75;;;-1.70;99.90;;;;;;5111297;27;20035;-67
2022/03/09 06:15:10;;;;;;;21.42;9.43;;;-1.70;99.90;;;;;;5103223;27;20046;-67
2022/03/09 06:17:43;;;;;;;20.35;9.90;;;-1.70;99.90;;;;;;5110955;27;20047;-68
2022/03/09 06:20:10;;;;;;;18.83;9.70;;;-1.70;99.90;;;;;;5101521;27;20035;-68
2022/03/09 06:22:35;;;;;;;19.50;9.55;;;-1.80;99.90;;;;;;5111248;27;20027;-68
2022/03/09 06:25:02;;;;;;;18.33;9.43;;;-1.80;99.90;;;;;;5111088;27;20401;-67
2022/03/09 06:27:27;;;;;;;20.27;9.65;;;-1.80;99.90;;;;;;5112203;27;20039;-67
2022/03/09 06:29:55;;;;;;;20.48;9.85;;;-1.80;99.90;;;;;;5111497;27;20035;-67
2022/03/09 06:32:21;;;;;;;21.08;9.95;;;-1.70;99.90;;;;;;5128530;27;20397;-67
2022/03/09 06:34:47;;;;;;;25.45;9.80;;;-1.70;99.90;;;;;;5108756;28;20035;-67
2022/03/09 06:37:12;;;;;;;21.38;9.30;;;-1.60;99.90;;;;;;5112609;28;20373;-67
2022/03/09 06:39:37;;;;;;;20.60;9.73;;;-1.60;99.90;;;;;;5101320;27;20386;-68
2022/03/09 06:42:03;;;;;;;20.88;9.88;;;-1.50;99.90;;;;;;5129789;27;20043;-67
2022/03/09 06:44:29;;;;;;;19.25;9.00;;;-1.40;99.90;;;;;;5111365;28;20035;-67
2022/03/09 06:46:56;;;;;;;18.65;9.50;;;-1.40;99.90;;;;;;5094360;27;20043;-67
2022/03/09 06:49:22;;;;;;;18.58;9.55;;;-1.30;99.90;;;;;;5106253;28;20039;-68
2022/03/09 06:51:47;;;;;;;23.38;10.30;;;-1.30;99.90;;;;;;5112851;27;20039;-67
2022/03/09 06:54:13;;;;;;;23.77;9.82;;;-1.20;99.90;;;;;;5110178;28;20370;-67
2022/03/09 06:56:38;;;;;;;21.20;10.23;;;-1.10;99.90;;;;;;5112621;28;20035;-68
2022/03/09 06:59:04;;;;;;;20.58;10.75;;;-1.00;99.90;;;;;;5112261;28;20120;-68
2022/03/09 07:01:30;;;;;;;20.85;10.05;;;-0.90;99.90;;;;;;5111964;28;20088;-67
2022/03/09 07:03:55;;;;;;;22.95;9.68;;;-0.80;99.90;;;;;;5112376;28;20038;-67
2022/03/09 07:06:21;;;;;;;20.00;10.00;;;-0.70;99.90;;;;;;5112973;28;20443;-67
2022/03/09 07:08:46;;;;;;;23.70;9.52;;;-0.70;99.90;;;;;;5112823;27;20074;-67
2022/03/09 07:11:12;;;;;;;19.42;9.70;;;-0.60;99.90;;;;;;5101608;28;20050;-68
2022/03/09 07:13:37;;;;;;;19.38;9.98;;;-0.50;99.90;;;;;;5100232;27;20031;-67
2022/03/09 07:16:03;;;;;;;22.33;9.70;;;-0.40;99.90;;;;;;5117349;27;20401;-67
2022/03/09 07:18:28;;;;;;;23.75;9.27;;;-0.30;99.90;;;;;;5114862;27;20039;-68
2022/03/09 07:20:54;;;;;;;18.63;9.68;;;-0.20;99.90;;;;;;5130926;27;20037;-67
2022/03/09 07:23:19;;;;;;;19.08;10.63;;;-0.20;99.90;;;;;;5116180;27;20064;-67
2022/03/09 07:25:45;;;;;;;19.80;10.30;;;0.00;99.90;;;;;;5113578;27;20462;-67
2022/03/09 07:28:11;;;;;;;20.40;10.07;;;0.10;99.90;;;;;;5115884;27;20045;-68
2022/03/09 07:30:37;;;;;;;23.02;9.85;;;0.20;99.90;;;;;;5114969;27;20043;-67
2022/03/09 07:33:02;;;;;;;20.67;10.77;;;0.30;99.90;;;;;;5115661;27;20254;-67
2022/03/09 07:35:28;;;;;;;20.90;10.07;;;0.40;99.90;;;;;;5114529;27;20035;-67
2022/03/09 07:37:53;;;;;;;22.85;10.07;;;0.50;99.90;;;;;;5115005;27;20077;-67
2022/03/09 07:40:19;;;;;;;21.08;10.07;;;0.60;99.90;;;;;;5113462;27;20092;-66
2022/03/09 07:42:45;;;;;;;20.30;9.55;;;0.70;99.90;;;;;;5114918;27;20196;-67
2022/03/09 07:45:10;;;;;;;19.38;10.00;;;0.80;99.90;;;;;;5114467;27;20036;-67
2022/03/09 07:47:36;;;;;;;17.67;9.15;;;1.00;99.90;;;;;;5115864;27;20566;-67
2022/03/09 07:50:04;;;;;;;20.30;10.13;;;1.10;99.90;;;;;;5113802;27;20073;-67
2022/03/09 07:52:29;;;;;;;20.25;9.88;;;1.20;99.90;;;;;;5115838;27;20151;-67
2022/03/09 07:54:55;;;;;;;20.70;10.00;;;1.30;99.90;;;;;;5115287;27;20071;-67
2022/03/09 07:57:20;;;;;;;20.27;9.85;;;1.40;99.90;;;;;;5113535;27;20047;-67
2022/03/09 07:59:46;;;;;;;20.30;9.52;;;1.60;99.90;;;;;;5104046;27;20118;-67
2022/03/09 08:02:11;;;;;;;17.15;9.45;;;1.70;99.90;;;;;;5103238;27;20036;-67
2022/03/09 08:04:37;;;;;;;19.52;10.25;;;1.80;99.90;;;;;;5113183;27;20039;-67
2022/03/09 08:07:03;;;;;;;17.98;9.73;;;1.90;99.90;;;;;;5113476;27;20043;-67
2022/03/09 08:09:29;;;;;;;16.73;9.32;;;2.10;99.90;;;;;;5112835;27;20042;-68
2022/03/09 08:11:54;;;;;;;16.58;8.95;;;2.10;99.90;;;;;;5106614;27;20073;-67
2022/03/09 08:14:20;;;;;;;21.17;10.30;;;2.20;99.90;;;;;;5115011;27;20074;-68
2022/03/09 08:16:45;;;;;;;19.63;9.88;;;2.40;99.90;;;;;;5106036;27;20042;-67
2022/03/09 08:19:11;;;;;;;17.10;9.20;;;2.50;99.90;;;;;;5113474;27;20045;-68
2022/03/09 08:21:37;;;;;;;21.48;9.88;;;2.60;99.90;;;;;;5113921;27;20147;-68
2022/03/09 08:24:03;;;;;;;22.27;9.45;;;2.70;99.90;;;;;;5113689;27;20134;-68
2022/03/09 08:26:28;;;;;;;16.80;9.43;;;2.80;99.90;;;;;;5114735;27;20088;-67
2022/03/09 08:28:54;;;;;;;16.83;8.75;;;3.00;99.90;;;;;;5110875;27;20562;-67
2022/03/09 08:31:19;;;;;;;17.02;9.85;;;3.10;99.90;;;;;;5132199;27;20043;-67
2022/03/09 08:33:45;;;;;;;19.42;9.23;;;3.20;99.90;;;;;;5115056;27;20031;-67
2022/03/09 08:36:13;;;;;;;18.45;9.20;;;3.30;99.90;;;;;;5112109;27;20503;-68
2022/03/09 08:38:39;;;;;;;15.65;9.00;;;3.50;99.90;;;;;;5111953;27;20092;-67
2022/03/09 08:41:04;;;;;;;18.55;8.98;;;3.60;99.90;;;;;;5114284;27;20035;-67
2022/03/09 08:43:30;;;;;;;16.50;8.82;;;3.70;99.90;;;;;;5115008;27;20112;-68
2022/03/09 08:45:55;;;;;;;18.08;9.30;;;3.80;99.90;;;;;;5095961;27;20046;-68
2022/03/09 08:48:21;;;;;;;19.05;8.85;;;3.90;99.90;;;;;;5114301;27;20396;-68
2022/03/09 08:50:47;;;;;;;21.98;9.38;;;4.00;99.90;;;;;;5113782;27;20549;-67
2022/03/09 08:53:12;;;;;;;15.55;8.95;;;4.10;99.90;;;;;;5104368;27;20047;-68
2022/03/09 08:55:38;;;;;;;17.55;8.55;;;4.30;99.90;;;;;;5097318;27;20121;-68
2022/03/09 08:58:04;;;;;;;13.95;8.38;;;4.40;99.90;;;;;;5113908;27;20035;-67
2022/03/09 09:00:29;;;;;;;16.25;8.90;;;4.50;99.90;;;;;;5112999;27;20261;-66
2022/03/09 09:02:55;;;;;;;16.40;8.30;;;4.60;99.90;;;;;;5113513;27;20042;-67
2022/03/09 09:05:22;;;;;;;15.73;8.50;;;4.70;99.90;;;;;;5114013;27;20054;-66
2022/03/09 09:07:48;;;;;;;18.05;9.27;;;4.80;99.90;;;;;;5114312;27;20089;-66
2022/03/09 09:10:14;;;;;;;17.58;8.75;;;4.90;99.90;;;;;;5096605;27;20494;-67
2022/03/09 09:12:39;;;;;;;17.20;8.38;;;5.10;99.90;;;;;;5105320;27;20169;-67
2022/03/09 09:15:06;;;;;;;17.38;8.70;;;5.20;99.90;;;;;;5103100;27;20039;-67
2022/03/09 09:17:31;;;;;;;17.65;7.90;;;5.30;99.90;;;;;;5113430;27;20035;-67
2022/03/09 09:19:57;;;;;;;13.77;8.52;;;5.30;99.90;;;;;;5104755;27;20093;-67
2022/03/09 09:22:23;;;;;;;18.80;8.55;;;5.40;99.90;;;;;;5113171;27;20121;-67
2022/03/09 09:24:48;;;;;;;13.60;8.02;;;5.50;99.90;;;;;;5113948;27;20039;-67
2022/03/09 09:27:14;;;;;;;15.07;8.15;;;5.60;99.90;;;;;;5113031;27;20035;-66
2022/03/09 09:29:39;;;;;;;16.02;8.63;;;5.70;99.90;;;;;;5100354;27;20393;-67
2022/03/09 09:32:05;;;;;;;13.65;8.07;;;5.80;99.90;;;;;;5113978;27;20050;-67
2022/03/09 09:34:31;;;;;;;16.08;8.52;;;5.90;99.90;;;;;;5111893;27;20524;-67
2022/03/09 09:36:57;;;;;;;13.95;8.60;;;5.90;99.90;;;;;;5113430;27;20123;-67
2022/03/09 09:39:23;;;;;;;16.73;8.75;;;6.10;99.90;;;;;;5095993;27;20075;-68
2022/03/09 09:41:52;;;;;;;19.27;8.50;;;6.20;99.90;;;;;;5114104;27;20082;-68
2022/03/09 09:44:20;;;;;;;17.50;8.48;;;6.30;99.90;;;;;;5100193;28;20032;-68
2022/03/09 09:46:46;;;;;;;14.10;8.50;;;6.40;99.90;;;;;;5092785;28;20078;-68
2022/03/09 09:49:14;;;;;;;14.10;8.77;;;6.50;99.90;;;;;;5093225;28;20087;-68
2022/03/09 09:51:42;;;;;;;15.85;8.85;;;6.60;99.90;;;;;;5122362;27;20035;-67
2022/03/09 09:54:08;;;;;;;15.43;8.85;;;6.60;99.90;;;;;;5076209;28;20046;-68
2022/03/09 09:56:38;;;;;;;17.02;8.98;;;6.70;99.90;;;;;;5093785;28;20498;-67
2022/03/09 09:59:05;;;;;;;15.57;9.00;;;6.90;99.90;;;;;;5111389;27;20427;-66
2022/03/09 10:01:32;;;;;;;16.88;9.10;;;6.90;99.90;;;;;;5106573;27;20035;-68
2022/03/09 10:03:57;;;;;;;17.58;9.35;;;7.00;99.90;;;;;;5113181;27;20089;-68
2022/03/09 10:06:23;;;;;;;17.00;9.27;;;7.10;99.90;;;;;;5112049;27;20044;-69
2022/03/09 10:09:11;;;;;;;15.07;9.55;;;7.20;99.90;;;;;;5112994;27;20059;-68
2022/03/09 10:11:54;;;;;;;17.08;9.13;;;7.40;99.90;;;;;;5112596;27;20051;-68
2022/03/09 10:14:38;;;;;;;18.25;9.50;;;7.40;99.90;;;;;;5092867;28;20051;-68
2022/03/09 10:17:06;;;;;;;15.80;9.20;;;7.60;99.90;;;;;;5109383;28;20044;-68
2022/03/09 10:19:37;;;;;;;20.45;9.88;;;7.60;99.90;;;;;;5092454;28;20047;-68
2022/03/09 10:22:27;;;;;;;15.35;9.25;;;7.70;99.90;;;;;;5092956;27;20043;-69
2022/03/09 10:24:59;;;;;;;16.85;9.65;;;7.90;99.90;;;;;;5092945;28;20399;-68
2022/03/09 10:27:35;;;;;;;16.38;9.85;;;8.00;99.90;;;;;;5092892;28;20039;-67
2022/03/09 10:30:05;;;;;;;20.45;9.90;;;8.10;99.90;;;;;;5103643;27;20031;-68
2022/03/09 10:32:54;;;;;;;16.85;9.50;;;8.20;99.90;;;;;;5113151;27;20143;-68
2022/03/09 10:35:30;;;;;;;17.90;10.18;;;8.30;99.90;;;;;;5113086;27;20043;-67
2022/03/09 10:37:58;;;;;;;16.60;9.27;;;8.40;99.90;;;;;;5093224;28;20043;-68
2022/03/09 10:40:25;;;;;;;18.55;10.05;;;8.50;99.90;;;;;;5097383;28;20095;-67
2022/03/09 10:42:51;;;;;;;17.33;10.23;;;8.60;99.90;;;;;;5110649;28;20100;-67
2022/03/09 10:45:17;;;;;;;16.83;9.85;;;8.70;99.90;;;;;;5112401;27;20035;-68
2022/03/09 10:47:45;;;;;;;17.30;10.30;;;8.80;99.60;;;;;;5109551;28;20039;-67
2022/03/09 10:50:24;;;;;;;17.52;9.77;;;8.90;98.60;;;;;;5108727;28;20046;-68
2022/03/09 10:52:57;;;;;;;18.67;10.75;;;9.00;98.50;;;;;;5104701;27;20517;-68
2022/03/09 10:55:32;;;;;;;18.50;9.88;;;9.10;96.70;;;;;;5130064;27;20516;-68
2022/03/09 10:58:09;;;;;;;18.08;10.18;;;9.20;97.60;;;;;;5111907;28;20082;-68
2022/03/09 11:00:36;;;;;;;21.67;10.90;;;9.20;96.60;;;;;;5124293;28;20112;-68
2022/03/09 11:03:06;;;;;;;16.25;10.15;;;9.40;96.60;;;;;;5107344;28;20151;-67
2022/03/09 11:05:32;;;;;;;21.38;11.00;;;9.40;93.40;;;;;;5109361;28;20442;-68
2022/03/09 11:07:57;;;;;;;19.00;10.60;;;9.50;94.90;;;;;;5112598;28;20093;-68
2022/03/09 11:10:25;;;;;;;17.52;10.60;;;9.60;92.90;;;;;;5109807;28;20043;-67
2022/03/09 11:12:51;;;;;;;17.90;10.40;;;9.70;94.70;;;;;;5110988;28;20517;-67
2022/03/09 11:15:21;;;;;;;20.63;11.07;;;9.80;93.50;;;;;;5112389;28;20039;-67
2022/03/09 11:17:48;;;;;;;23.50;11.43;;;9.80;85.20;;;;;;5112184;28;20046;-67
2022/03/09 11:20:17;;;;;;;22.23;10.55;;;9.90;89.80;;;;;;5109613;28;20039;-68
2022/03/09 11:22:43;;;;;;;19.08;10.95;;;10.00;83.40;;;;;;5098805;28;20036;-68
2022/03/09 11:25:10;;;;;;;21.17;11.38;;;10.10;88.60;;;;;;5105833;28;20031;-67
2022/03/09 11:27:46;;;;;;;17.92;10.88;;;10.20;85.30;;;;;;5112489;28;20043;-68
2022/03/09 11:30:29;;;;;;;21.77;10.98;;;10.20;86.10;;;;;;5111355;28;20195;-67
2022/03/09 11:32:57;;;;;;;19.27;10.82;;;10.30;71.20;;;;;;5129930;28;20088;-67
2022/03/09 11:35:36;;;;;;;19.35;11.05;;;10.30;77.60;;;;;;5112585;28;20424;-68
2022/03/09 11:38:23;;;;;;;18.48;10.98;;;10.50;80.00;;;;;;5112442;28;20040;-67
2022/03/09 11:41:15;;;;;;;21.20;11.93;;;10.60;81.20;;;;;;5110142;28;20071;-67
2022/03/09 11:43:41;;;;;;;19.60;10.98;;;10.70;72.70;;;;;;5091844;28;20066;-68
2022/03/09 11:46:06;;;;;;;22.48;11.65;;;10.70;74.80;;;;;;5092258;28;20114;-68
2022/03/09 11:48:55;;;;;;;22.23;11.70;;;10.80;73.60;;;;;;5091493;28;20444;-68
2022/03/09 11:51:23;;;;;;;19.95;11.55;;;10.90;67.90;;;;;;5075176;28;20043;-67
2022/03/09 11:53:57;;;;;;;20.50;11.57;;;10.90;72.30;;;;;;5101820;27;20039;-68
2022/03/09 11:56:38;;;;;;;21.63;11.82;;;11.00;67.50;;;;;;5118393;27;20061;-68
2022/03/09 11:59:08;;;;;;;24.42;11.88;;;11.10;64.00;;;;;;5115812;27;20057;-67
2022/03/09 12:02:09;;;;;;;23.92;12.15;;;11.20;65.60;;;;;;5100604;28;20482;-67
2022/03/09 12:04:50;;;;;;;22.02;11.77;;;11.20;61.30;;;;;;5112305;27;20034;-67
2022/03/09 12:07:33;;;;;;;22.85;12.07;;;11.30;62.10;;;;;;5115410;27;20051;-68
2022/03/09 12:10:08;;;;;;;22.88;12.15;;;11.30;64.80;;;;;;5110238;27;20047;-68
2022/03/09 12:12:35;;;;;;;24.95;13.00;;;11.30;65.80;;;;;;5115536;27;20065;-67
2022/03/09 12:15:08;;;;;;;24.35;12.85;;;11.40;64.70;;;;;;5115378;27;20038;-68
2022/03/09 12:17:37;;;;;;;24.98;11.63;;;11.50;59.90;;;;;;5133396;27;20131;-68
2022/03/09 12:20:25;;;;;;;23.13;12.30;;;11.50;60.90;;;;;;5114900;27;20391;-69
2022/03/09 12:22:57;;;;;;;22.80;12.25;;;11.50;59.50;;;;;;5115618;27;20435;-67
2022/03/09 12:25:43;;;;;;;21.97;11.93;;;11.60;62.40;;;;;;5109140;27;20543;-68
2022/03/09 12:28:23;;;;;;;24.25;12.50;;;11.60;62.10;;;;;;5095052;28;20062;-68
2022/03/09 12:30:56;;;;;;;24.60;12.43;;;11.70;61.20;;;;;;5093324;28;20153;-68
2022/03/09 12:33:29;;;;;;;25.70;12.93;;;11.80;63.20;;;;;;5093813;28;20127;-68
2022/03/09 12:36:08;;;;;;;;;;;11.80;60.50;;;;;;5105886;27;20039;-68
2022/03/09 12:38:40;;;;;;;27.60;12.90;;;11.80;58.70;;;;;;5115062;27;20021;-68
2022/03/09 12:41:22;;;;;;;24.92;13.43;;;11.90;60.90;;;;;;5104281;27;20126;-68
2022/03/09 12:43:53;;;;;;;26.65;13.25;;;11.90;60.60;;;;;;5096373;27;20043;-68